createdAt,value
2023-04-16T00:00:58.608Z,-89
2023-04-16T00:04:04.510Z,-85
2023-04-16T00:07:11.159Z,-89
2023-04-16T00:10:19.953Z,-86
2023-04-16T00:13:27.699Z,-87
2023-04-16T00:16:33.591Z,-87
2023-04-16T00:19:40.159Z,-88
2023-04-16T00:22:45.825Z,-89
2023-04-16T00:25:57.377Z,-89
2023-04-16T00:29:04.436Z,-90
2023-04-16T00:32:11.205Z,-87
2023-04-16T00:35:16.811Z,-89
2023-04-16T00:38:23.359Z,-88
2023-04-16T00:41:31.557Z,-87
2023-04-16T00:44:38.281Z,-84
2023-04-16T00:47:44.024Z,-88
2023-04-16T00:50:51.340Z,-89
2023-04-16T00:53:57.421Z,-89
2023-04-16T00:57:06.784Z,-88
2023-04-16T01:00:14.629Z,-89
2023-04-16T01:03:21.481Z,-83
2023-04-16T01:06:27.203Z,-88
2023-04-16T01:09:33.622Z,-89
2023-04-16T01:12:41.864Z,-89
2023-04-16T01:15:48.375Z,-89
2023-04-16T01:18:54.017Z,-90
2023-04-16T01:22:03.138Z,-88
2023-04-16T01:25:09.744Z,-90
2023-04-16T01:28:16.750Z,-89
2023-04-16T01:31:22.470Z,-91
2023-04-16T01:34:54.888Z,-90
2023-04-16T01:38:03.240Z,-90
2023-04-16T01:41:09.606Z,-90
2023-04-16T01:44:15.320Z,-91
2023-04-16T01:47:22.020Z,-90
2023-04-16T01:50:27.962Z,-91
2023-04-16T01:53:37.277Z,-86
2023-04-16T01:56:43.813Z,-88
2023-04-16T01:59:49.548Z,-89
2023-04-16T02:02:57.419Z,-89
2023-04-16T02:06:06.217Z,-89
2023-04-16T02:09:15.237Z,-88
2023-04-16T02:12:21.265Z,-89
2023-04-16T02:15:27.939Z,-89
2023-04-16T02:18:33.743Z,-90
2023-04-16T02:21:40.162Z,-89
2023-04-16T02:24:48.532Z,-88
2023-04-16T02:27:55.222Z,-89
2023-04-16T02:31:15.273Z,-87
2023-04-16T02:34:24.346Z,-90
2023-04-16T02:37:30.409Z,-89
2023-04-16T02:40:39.691Z,-90
2023-04-16T02:43:45.360Z,-89
2023-04-16T02:46:51.745Z,-89
2023-04-16T02:49:57.311Z,-89
2023-04-16T02:53:04.563Z,-88
2023-04-16T02:56:13.051Z,-90
2023-04-16T02:59:19.469Z,-89
2023-04-16T03:02:25.339Z,-90
2023-04-16T03:05:32.301Z,-90
2023-04-16T03:08:37.799Z,-89
2023-04-16T03:11:46.833Z,-87
2023-04-16T03:14:54.428Z,-89
2023-04-16T03:18:01.332Z,-85
2023-04-16T03:21:08.126Z,-89
2023-04-16T03:24:17.012Z,-89
2023-04-16T03:27:25.255Z,-89
2023-04-16T03:30:32.431Z,-89
2023-04-16T03:33:38.148Z,-90
2023-04-16T03:36:44.917Z,-89
2023-04-16T03:39:50.933Z,-88
2023-04-16T03:42:59.911Z,-88
2023-04-16T03:46:09.891Z,-89
2023-04-16T03:49:16.957Z,-86
2023-04-16T03:52:22.602Z,-88
2023-04-16T03:55:29.087Z,-88
2023-04-16T03:58:38.556Z,-89
2023-04-16T04:01:45.178Z,-90
2023-04-16T04:04:51.239Z,-89
2023-04-16T04:07:57.831Z,-90
2023-04-16T04:11:03.757Z,-89
2023-04-16T04:14:14.195Z,-86
2023-04-16T04:17:19.966Z,-88
2023-04-16T04:20:26.864Z,-88
2023-04-16T04:23:32.573Z,-87
2023-04-16T04:26:39.087Z,-87
2023-04-16T04:29:47.634Z,-87
2023-04-16T04:32:54.062Z,-88
2023-04-16T04:36:00.293Z,-88
2023-04-16T04:39:07.727Z,-89
2023-04-16T04:42:13.653Z,-84
2023-04-16T04:45:25.687Z,-88
2023-04-16T04:48:32.834Z,-86
2023-04-16T04:51:39.589Z,-89
2023-04-16T04:54:45.190Z,-88
2023-04-16T04:57:52.158Z,-88
2023-04-16T05:01:01.681Z,-85
2023-04-16T05:04:08.624Z,-85
2023-04-16T05:07:14.335Z,-86
2023-04-16T05:10:20.850Z,-85
2023-04-16T05:13:26.722Z,-86
2023-04-16T05:16:35.981Z,-84
2023-04-16T05:19:41.581Z,-87
2023-04-16T05:22:47.962Z,-87
2023-04-16T05:25:53.634Z,-86
2023-04-16T05:29:00.185Z,-86
2023-04-16T05:32:08.646Z,-86
2023-04-16T05:35:17.301Z,-84
2023-04-16T05:38:23.260Z,-84
2023-04-16T05:41:29.730Z,-84
2023-04-16T05:44:35.438Z,-88
2023-04-16T05:47:44.523Z,-77
2023-04-16T05:50:50.080Z,-76
2023-04-16T05:53:58.973Z,-75
2023-04-16T05:57:04.830Z,-76
2023-04-16T06:00:12.730Z,-76
2023-04-16T06:03:21.247Z,-75
2023-04-16T06:06:29.703Z,-75
2023-04-16T06:09:35.280Z,-75
2023-04-16T06:12:41.879Z,-76
2023-04-16T06:15:48.097Z,-76
2023-04-16T06:18:57.078Z,-76
2023-04-16T06:22:03.096Z,-76
2023-04-16T06:25:11.172Z,-76
2023-04-16T06:28:16.767Z,-76
2023-04-16T06:31:23.386Z,-77
2023-04-16T06:34:32.054Z,-77
2023-04-16T06:37:38.673Z,-76
2023-04-16T06:40:44.868Z,-77
2023-04-16T06:43:51.445Z,-76
2023-04-16T06:46:57.240Z,-76
2023-04-16T06:50:06.376Z,-77
2023-04-16T06:53:12.209Z,-75
2023-04-16T06:56:18.765Z,-76
2023-04-16T06:59:24.357Z,-76
2023-04-16T07:02:31.097Z,-76
2023-04-16T07:05:39.328Z,-75
2023-04-16T07:08:46.109Z,-76
2023-04-16T07:11:51.871Z,-75
2023-04-16T07:14:58.338Z,-76
2023-04-16T07:18:03.988Z,-76
2023-04-16T07:21:13.089Z,-76
2023-04-16T07:24:18.657Z,-76
2023-04-16T07:27:25.623Z,-77
2023-04-16T07:30:34.537Z,-77
2023-04-16T07:33:43.531Z,-76
2023-04-16T07:36:55.057Z,-75
2023-04-16T07:40:03.125Z,-75
2023-04-16T07:43:09.295Z,-77
2023-04-16T07:46:16.422Z,-76
2023-04-16T07:49:22.052Z,-75
2023-04-16T07:52:32.368Z,-75
2023-04-16T07:55:38.276Z,-75
2023-04-16T07:58:45.356Z,-76
2023-04-16T08:01:51.865Z,-75
2023-04-16T08:05:03.384Z,-75
2023-04-16T08:08:12.034Z,-75
2023-04-16T08:11:21.808Z,-76
2023-04-16T08:14:27.477Z,-75
2023-04-16T08:17:34.788Z,-75
2023-04-16T08:20:40.825Z,-76
2023-04-16T08:23:50.241Z,-76
2023-04-16T08:27:00.352Z,-76
2023-04-16T08:30:12.007Z,-76
2023-04-16T08:33:17.830Z,-75
2023-04-16T08:36:24.400Z,-76
2023-04-16T08:39:33.290Z,-75
2023-04-16T08:42:48.575Z,-75
2023-04-16T08:45:59.402Z,-77
2023-04-16T08:49:10.158Z,-77
2023-04-16T08:52:22.155Z,-77
2023-04-16T08:55:40.518Z,-77
2023-04-16T08:58:50.622Z,-77
2023-04-16T09:02:02.131Z,-77
2023-04-16T09:05:12.539Z,-77
2023-04-16T09:08:21.494Z,-76
2023-04-16T09:11:30.603Z,-77
2023-04-16T09:14:38.480Z,-76
2023-04-16T09:17:45.292Z,-77
2023-04-16T09:20:53.659Z,-76
2023-04-16T09:24:00.173Z,-76
2023-04-16T09:27:11.422Z,-76
2023-04-16T09:30:29.112Z,-77
2023-04-16T09:33:35.613Z,-77
2023-04-16T09:36:41.205Z,-77
2023-04-16T09:39:49.022Z,-77
2023-04-16T09:43:01.434Z,-77
2023-04-16T09:46:08.723Z,-76
2023-04-16T09:49:19.343Z,-77
2023-04-16T09:52:30.412Z,-77
2023-04-16T09:55:36.773Z,-76
2023-04-16T09:58:46.275Z,-77
2023-04-16T10:01:58.062Z,-76
2023-04-16T10:05:23.177Z,-77
2023-04-16T10:08:28.806Z,-76
2023-04-16T10:11:35.604Z,-77
2023-04-16T10:14:45.338Z,-77
2023-04-16T10:17:54.074Z,-77
2023-04-16T10:21:01.822Z,-78
2023-04-16T10:24:10.969Z,-78
2023-04-16T10:27:16.844Z,-77
2023-04-16T10:30:26.787Z,-77
2023-04-16T10:33:36.735Z,-76
2023-04-16T10:36:43.328Z,-76
2023-04-16T10:39:49.966Z,-77
2023-04-16T10:43:01.739Z,-76
2023-04-16T10:46:27.015Z,-77
2023-04-16T10:49:33.726Z,-77
2023-04-16T10:52:39.462Z,-77
2023-04-16T10:56:00.918Z,-77
2023-04-16T10:59:09.459Z,-77
2023-04-16T11:02:24.191Z,-77
2023-04-16T11:05:49.764Z,-77
2023-04-16T11:08:57.259Z,-77
2023-04-16T11:12:10.703Z,-77
2023-04-16T11:15:19.875Z,-76
2023-04-16T11:18:29.309Z,-77
2023-04-16T11:21:37.276Z,-76
2023-04-16T11:24:43.431Z,-76
2023-04-16T11:27:49.880Z,-76
2023-04-16T11:30:55.785Z,-77
2023-04-16T11:34:04.998Z,-76
2023-04-16T11:37:11.166Z,-77
2023-04-16T11:40:18.015Z,-76
2023-04-16T11:43:23.677Z,-76
2023-04-16T11:46:42.768Z,-76
2023-04-16T11:49:52.199Z,-76
2023-04-16T11:53:07.178Z,-77
2023-04-16T11:56:13.132Z,-76
2023-04-16T11:59:23.262Z,-76
2023-04-16T12:02:40.185Z,-76
2023-04-16T12:05:49.772Z,-77
2023-04-16T12:09:04.210Z,-76
2023-04-16T12:12:31.575Z,-77
2023-04-16T12:15:51.733Z,-77
2023-04-16T12:19:06.670Z,-76
2023-04-16T12:22:16.229Z,-76
2023-04-16T12:25:23.359Z,-76
2023-04-16T12:28:35.227Z,-76
2023-04-16T12:31:43.605Z,-77
2023-04-16T12:34:54.382Z,-76
2023-04-16T12:38:04.374Z,-76
2023-04-16T12:41:11.110Z,-78
2023-04-16T12:44:21.978Z,-77
2023-04-16T12:47:27.867Z,-77
2023-04-16T12:50:34.714Z,-77
2023-04-16T12:53:43.081Z,-78
2023-04-16T12:56:49.642Z,-77
2023-04-16T12:59:55.275Z,-77
2023-04-16T13:03:01.899Z,-77
2023-04-16T13:06:08.127Z,-77
2023-04-16T13:09:18.417Z,-77
2023-04-16T13:12:24.126Z,-77
2023-04-16T13:15:30.701Z,-76
2023-04-16T13:18:36.906Z,-77
2023-04-16T13:25:05.281Z,-76
2023-04-16T13:28:11.913Z,-77
2023-04-16T13:31:20.790Z,-78
2023-04-16T13:34:27.616Z,-77
2023-04-16T13:37:33.237Z,-78
2023-04-16T13:40:42.264Z,-78
2023-04-16T13:43:47.887Z,-77
2023-04-16T13:46:54.408Z,-77
2023-04-16T13:50:00.012Z,-76
2023-04-16T13:53:06.636Z,-77
2023-04-16T13:56:15.540Z,-77
2023-04-16T13:59:22.194Z,-77
2023-04-16T14:02:28.517Z,-76
2023-04-16T14:05:35.151Z,-76
2023-04-16T14:08:41.075Z,-75
2023-04-16T14:11:50.137Z,-76
2023-04-16T14:14:57.256Z,-76
2023-04-16T14:18:03.996Z,-76
2023-04-16T14:21:09.737Z,-76
2023-04-16T14:24:16.095Z,-75
2023-04-16T14:27:27.614Z,-76
2023-04-16T14:30:34.026Z,-76
2023-04-16T14:33:39.892Z,-76
2023-04-16T14:36:46.505Z,-76
2023-04-16T14:39:54.253Z,-76
2023-04-16T14:43:03.284Z,-76
2023-04-16T14:46:09.284Z,-76
2023-04-16T14:49:15.970Z,-75
2023-04-16T14:52:21.799Z,-76
2023-04-16T14:55:28.257Z,-76
2023-04-16T14:58:37.842Z,-76
2023-04-16T15:01:46.656Z,-75
2023-04-16T15:04:52.365Z,-75
2023-04-16T15:07:58.834Z,-75
2023-04-16T15:11:04.507Z,-75
2023-04-16T15:14:14.763Z,-75
2023-04-16T15:17:20.632Z,-75
2023-04-16T15:20:27.281Z,-76
2023-04-16T15:23:32.883Z,-76
2023-04-16T15:26:39.887Z,-75
2023-04-16T15:29:49.798Z,-76
2023-04-16T15:32:56.746Z,-76
2023-04-16T15:36:02.663Z,-76
2023-04-16T15:39:09.925Z,-76
2023-04-16T15:42:16.008Z,-76
2023-04-16T15:45:25.177Z,-75
2023-04-16T15:48:31.061Z,-76
2023-04-16T15:51:37.673Z,-76
2023-04-16T15:54:43.928Z,-77
2023-04-16T15:57:50.455Z,-76
2023-04-16T16:00:58.765Z,-75
2023-04-16T16:04:05.609Z,-76
2023-04-16T16:07:11.518Z,-76
2023-04-16T16:10:18.046Z,-76
2023-04-16T16:13:23.690Z,-77
2023-04-16T16:16:33.118Z,-77
2023-04-16T16:19:38.894Z,-77
2023-04-16T16:22:48.626Z,-77
2023-04-16T16:25:55.696Z,-77
2023-04-16T16:29:02.296Z,-76
2023-04-16T16:32:11.008Z,-77
2023-04-16T16:35:17.441Z,-77
2023-04-16T16:38:23.159Z,-77
2023-04-16T16:41:29.604Z,-77
2023-04-16T16:44:35.202Z,-77
2023-04-16T16:47:44.446Z,-77
2023-04-16T16:50:50.247Z,-77
2023-04-16T16:53:57.036Z,-77
2023-04-16T16:57:02.615Z,-77
2023-04-16T17:00:14.501Z,-77
2023-04-16T17:03:22.893Z,-77
2023-04-16T17:06:29.762Z,-77
2023-04-16T17:09:38.830Z,-77
2023-04-16T17:12:47.309Z,-77
2023-04-16T17:15:52.892Z,-77
2023-04-16T17:19:02.056Z,-77
2023-04-16T17:22:07.652Z,-77
2023-04-16T17:25:15.182Z,-77
2023-04-16T17:28:21.103Z,-77
2023-04-16T17:31:29.921Z,-77
2023-04-16T17:34:38.339Z,-77
2023-04-16T17:37:44.797Z,-77
2023-04-16T17:40:50.584Z,-77
2023-04-16T17:43:57.059Z,-76
2023-04-16T17:47:02.794Z,-77
2023-04-16T17:50:13.705Z,-77
2023-04-16T17:53:19.321Z,-77
2023-04-16T17:56:25.778Z,-77
2023-04-16T17:59:31.451Z,-77
2023-04-16T18:02:39.487Z,-77
2023-04-16T18:05:47.813Z,-77
2023-04-16T18:08:54.268Z,-77
2023-04-16T18:12:03.471Z,-77
2023-04-16T18:15:12.062Z,-76
2023-04-16T18:18:17.664Z,-76
2023-04-16T18:21:27.690Z,-76
2023-04-16T18:24:35.525Z,-76
2023-04-16T18:27:41.985Z,-76
2023-04-16T18:30:47.580Z,-76
2023-04-16T18:33:57.898Z,-76
2023-04-16T18:37:07.207Z,-76
2023-04-16T18:40:15.653Z,-76
2023-04-16T18:43:21.382Z,-76
2023-04-16T18:46:28.094Z,-76
2023-04-16T18:49:33.882Z,-76
2023-04-16T18:52:43.643Z,-76
2023-04-16T18:55:49.264Z,-76
2023-04-16T18:58:55.714Z,-76
2023-04-16T19:02:01.431Z,-76
2023-04-16T19:05:09.192Z,-76
2023-04-16T19:08:17.354Z,-76
2023-04-16T19:11:23.982Z,-76
2023-04-16T19:14:29.601Z,-76
2023-04-16T19:17:36.162Z,-76
2023-04-16T19:20:42.353Z,-76
2023-04-16T19:23:51.726Z,-76
2023-04-16T19:26:57.505Z,-76
2023-04-16T19:30:06.550Z,-76
2023-04-16T19:33:12.246Z,-76
2023-04-16T19:36:18.874Z,-76
2023-04-16T19:39:29.624Z,-76
2023-04-16T19:42:37.005Z,-77
2023-04-16T19:45:46.827Z,-75
2023-04-16T19:48:53.399Z,-75
2023-04-16T19:51:59.943Z,-75
2023-04-16T19:55:10.970Z,-75
2023-04-16T19:58:16.967Z,-76
2023-04-16T20:01:23.564Z,-76
2023-04-16T20:04:29.487Z,-78
2023-04-16T20:07:36.356Z,-77
2023-04-16T20:10:44.758Z,-77
2023-04-16T20:13:51.378Z,-76
2023-04-16T20:16:57.655Z,-77
2023-04-16T20:20:10.098Z,-77
2023-04-16T20:23:16.005Z,-76
2023-04-16T20:26:28.413Z,-77
2023-04-16T20:29:34.208Z,-77
2023-04-16T20:32:40.736Z,-78
2023-04-16T20:35:46.410Z,-77
2023-04-16T20:38:54.104Z,-77
2023-04-16T20:42:04.502Z,-77
2023-04-16T20:45:12.999Z,-77
2023-04-16T20:48:18.615Z,-77
2023-04-16T20:51:25.082Z,-76
2023-04-16T20:54:31.231Z,-77
2023-04-16T20:57:40.181Z,-77
2023-04-16T21:00:45.897Z,-77
2023-04-16T21:03:52.522Z,-77
2023-04-16T21:06:58.444Z,-77
2023-04-16T21:10:05.350Z,-78
2023-04-16T21:13:13.904Z,-77
2023-04-16T21:16:20.408Z,-77
2023-04-16T21:19:27.399Z,-77
2023-04-16T21:22:33.748Z,-77
2023-04-16T21:25:39.259Z,-77
2023-04-16T21:28:48.458Z,-77
2023-04-16T21:31:54.180Z,-77
2023-04-16T21:35:00.996Z,-78
2023-04-16T21:38:06.813Z,-77
2023-04-16T21:41:13.230Z,-77
2023-04-16T21:44:21.378Z,-77
2023-04-16T21:47:27.728Z,-77
2023-04-16T21:50:33.366Z,-77
2023-04-16T21:53:40.079Z,-77
2023-04-16T21:56:46.434Z,-77
2023-04-16T21:59:55.368Z,-77
2023-04-16T22:03:01.189Z,-77
2023-04-16T22:06:08.763Z,-77
2023-04-16T22:09:14.321Z,-76
2023-04-16T22:12:20.756Z,-77
2023-04-16T22:15:29.236Z,-77
2023-04-16T22:18:35.761Z,-77
2023-04-16T22:21:41.586Z,-77
2023-04-16T22:24:48.003Z,-77
2023-04-16T22:27:53.899Z,-77
2023-04-16T22:31:03.276Z,-77
2023-04-16T22:34:12.218Z,-77
2023-04-16T22:37:18.898Z,-77
2023-04-16T22:40:24.532Z,-77
2023-04-16T22:43:30.965Z,-76
2023-04-16T22:46:39.178Z,-77
2023-04-16T22:49:45.614Z,-76
2023-04-16T22:52:51.405Z,-76
2023-04-16T22:55:57.969Z,-77
2023-04-16T22:59:03.587Z,-77
2023-04-16T23:02:12.757Z,-76
2023-04-16T23:05:18.450Z,-77
2023-04-16T23:08:27.175Z,-77
2023-04-16T23:11:32.709Z,-77
2023-04-16T23:14:39.882Z,-77
2023-04-16T23:17:48.705Z,-76
2023-04-16T23:20:56.979Z,-77
2023-04-16T23:24:03.625Z,-77
2023-04-16T23:27:10.087Z,-77
2023-04-16T23:30:16.765Z,-76
2023-04-16T23:33:25.839Z,-76
2023-04-16T23:36:31.690Z,-77
2023-04-16T23:39:38.083Z,-77
2023-04-16T23:42:43.741Z,-77
2023-04-16T23:45:50.181Z,-77
2023-04-16T23:48:58.414Z,-75
2023-04-16T23:52:05.807Z,-77
2023-04-16T23:55:12.232Z,-77
2023-04-16T23:58:18.814Z,-77
